sensor_id;sensor_type;location;lat;lon;timestamp;P1;durP1;ratioP1;P2;durP2;ratioP2
50649;SDS011;36621;60.058;30.346;2023-04-07T00:03:22;12.20;;;2.50;;
50649;SDS011;36621;60.058;30.346;2023-04-07T00:10:54;13.50;;;3.95;;
50649;SDS011;36621;60.058;30.346;2023-04-07T00:18:27;6.75;;;2.78;;
50649;SDS011;36621;60.058;30.346;2023-04-07T00:25:59;3.58;;;2.13;;
50649;SDS011;36621;60.058;30.346;2023-04-07T00:33:31;4.35;;;1.92;;
50649;SDS011;36621;60.058;30.346;2023-04-07T00:41:04;3.92;;;1.95;;
50649;SDS011;36621;60.058;30.346;2023-04-07T00:48:36;2.95;;;1.83;;
50649;SDS011;36621;60.058;30.346;2023-04-07T00:56:09;3.65;;;1.98;;
50649;SDS011;36621;60.058;30.346;2023-04-07T01:03:43;5.10;;;1.85;;
50649;SDS011;36621;60.058;30.346;2023-04-07T01:11:23;5.65;;;1.90;;
50649;SDS011;36621;60.058;30.346;2023-04-07T01:19:00;4.30;;;2.03;;
50649;SDS011;36621;60.058;30.346;2023-04-07T01:26:40;2.22;;;1.60;;
50649;SDS011;36621;60.058;30.346;2023-04-07T01:34:13;3.72;;;1.65;;
50649;SDS011;36621;60.058;30.346;2023-04-07T01:41:48;5.78;;;3.13;;
50649;SDS011;36621;60.058;30.346;2023-04-07T01:49:23;3.97;;;2.70;;
50649;SDS011;36621;60.058;30.346;2023-04-07T01:56:57;3.90;;;2.00;;
50649;SDS011;36621;60.058;30.346;2023-04-07T02:04:33;4.63;;;2.38;;
50649;SDS011;36621;60.058;30.346;2023-04-07T02:12:10;4.20;;;2.30;;
50649;SDS011;36621;60.058;30.346;2023-04-07T02:19:54;5.63;;;2.00;;
50649;SDS011;36621;60.058;30.346;2023-04-07T02:27:29;6.22;;;2.65;;
50649;SDS011;36621;60.058;30.346;2023-04-07T02:35:02;4.30;;;2.50;;
50649;SDS011;36621;60.058;30.346;2023-04-07T02:42:34;5.30;;;2.10;;
50649;SDS011;36621;60.058;30.346;2023-04-07T02:50:07;2.80;;;2.25;;
50649;SDS011;36621;60.058;30.346;2023-04-07T02:57:40;2.75;;;2.10;;
50649;SDS011;36621;60.058;30.346;2023-04-07T03:05:26;4.85;;;3.30;;
50649;SDS011;36621;60.058;30.346;2023-04-07T03:13:00;2.80;;;1.90;;
50649;SDS011;36621;60.058;30.346;2023-04-07T03:20:34;4.38;;;2.45;;
50649;SDS011;36621;60.058;30.346;2023-04-07T03:28:13;4.03;;;2.00;;
50649;SDS011;36621;60.058;30.346;2023-04-07T03:35:47;3.22;;;1.83;;
50649;SDS011;36621;60.058;30.346;2023-04-07T03:43:19;4.78;;;2.00;;
50649;SDS011;36621;60.058;30.346;2023-04-07T03:50:52;3.60;;;2.20;;
50649;SDS011;36621;60.058;30.346;2023-04-07T03:58:26;8.32;;;2.25;;
50649;SDS011;36621;60.058;30.346;2023-04-07T04:05:59;4.57;;;2.22;;
50649;SDS011;36621;60.058;30.346;2023-04-07T04:13:34;6.70;;;2.30;;
50649;SDS011;36621;60.058;30.346;2023-04-07T04:21:09;5.28;;;2.10;;
50649;SDS011;36621;60.058;30.346;2023-04-07T04:28:46;9.85;;;2.35;;
50649;SDS011;36621;60.058;30.346;2023-04-07T04:36:20;8.15;;;2.20;;
50649;SDS011;36621;60.058;30.346;2023-04-07T04:43:54;17.10;;;2.63;;
50649;SDS011;36621;60.058;30.346;2023-04-07T04:51:31;12.00;;;2.53;;
50649;SDS011;36621;60.058;30.346;2023-04-07T15:19:52;9.75;;;1.50;;
50649;SDS011;36621;60.058;30.346;2023-04-07T15:27:25;7.15;;;1.40;;
50649;SDS011;36621;60.058;30.346;2023-04-07T15:35:02;11.23;;;1.70;;
50649;SDS011;36621;60.058;30.346;2023-04-07T15:42:37;7.65;;;1.40;;
50649;SDS011;36621;60.058;30.346;2023-04-07T15:50:15;8.38;;;1.50;;
50649;SDS011;36621;60.058;30.346;2023-04-07T15:57:47;12.77;;;2.03;;
50649;SDS011;36621;60.058;30.346;2023-04-07T16:05:23;9.35;;;1.55;;
50649;SDS011;36621;60.058;30.346;2023-04-07T16:12:56;15.20;;;1.98;;
50649;SDS011;36621;60.058;30.346;2023-04-07T16:20:29;27.05;;;6.55;;
50649;SDS011;36621;60.058;30.346;2023-04-07T16:28:01;14.73;;;3.58;;
50649;SDS011;36621;60.058;30.346;2023-04-07T16:35:44;11.32;;;2.22;;
50649;SDS011;36621;60.058;30.346;2023-04-07T16:43:22;15.45;;;1.95;;
50649;SDS011;36621;60.058;30.346;2023-04-07T16:59:26;17.38;;;2.80;;
50649;SDS011;36621;60.058;30.346;2023-04-07T17:07:03;11.45;;;2.58;;
50649;SDS011;36621;60.058;30.346;2023-04-07T17:14:36;9.27;;;3.30;;
50649;SDS011;36621;60.058;30.346;2023-04-07T17:22:11;22.90;;;2.83;;
50649;SDS011;36621;60.058;30.346;2023-04-07T17:29:43;19.58;;;3.17;;
50649;SDS011;36621;60.058;30.346;2023-04-07T17:37:19;16.75;;;2.70;;
50649;SDS011;36621;60.058;30.346;2023-04-07T17:44:52;18.20;;;2.90;;
50649;SDS011;36621;60.058;30.346;2023-04-07T17:52:25;14.38;;;4.45;;
50649;SDS011;36621;60.058;30.346;2023-04-07T17:59:59;22.00;;;4.53;;
50649;SDS011;36621;60.058;30.346;2023-04-07T18:07:34;26.00;;;6.70;;
50649;SDS011;36621;60.058;30.346;2023-04-07T18:15:07;42.10;;;7.65;;
50649;SDS011;36621;60.058;30.346;2023-04-07T18:22:44;26.85;;;6.93;;
50649;SDS011;36621;60.058;30.346;2023-04-07T18:30:19;31.60;;;5.77;;
50649;SDS011;36621;60.058;30.346;2023-04-07T18:37:58;21.02;;;5.28;;
50649;SDS011;36621;60.058;30.346;2023-04-07T18:45:30;18.55;;;3.85;;
50649;SDS011;36621;60.058;30.346;2023-04-07T18:53:09;8.63;;;2.70;;
50649;SDS011;36621;60.058;30.346;2023-04-07T19:00:52;13.38;;;4.03;;
50649;SDS011;36621;60.058;30.346;2023-04-07T19:08:30;15.18;;;3.95;;
50649;SDS011;36621;60.058;30.346;2023-04-07T19:16:09;14.30;;;3.45;;
50649;SDS011;36621;60.058;30.346;2023-04-07T19:23:45;21.17;;;4.38;;
50649;SDS011;36621;60.058;30.346;2023-04-07T19:31:19;17.88;;;5.10;;
50649;SDS011;36621;60.058;30.346;2023-04-07T19:38:54;14.25;;;4.10;;
50649;SDS011;36621;60.058;30.346;2023-04-07T19:46:27;18.63;;;4.65;;
50649;SDS011;36621;60.058;30.346;2023-04-07T19:54:08;14.88;;;5.35;;
50649;SDS011;36621;60.058;30.346;2023-04-07T20:01:47;23.52;;;4.78;;
50649;SDS011;36621;60.058;30.346;2023-04-07T20:09:26;30.70;;;9.18;;
50649;SDS011;36621;60.058;30.346;2023-04-07T20:16:59;22.38;;;7.20;;
50649;SDS011;36621;60.058;30.346;2023-04-07T20:24:37;22.40;;;5.68;;
50649;SDS011;36621;60.058;30.346;2023-04-07T20:32:11;22.75;;;7.53;;
50649;SDS011;36621;60.058;30.346;2023-04-07T20:39:46;28.30;;;7.30;;
50649;SDS011;36621;60.058;30.346;2023-04-07T20:47:20;33.85;;;9.55;;
50649;SDS011;36621;60.058;30.346;2023-04-07T20:54:57;20.92;;;7.13;;
50649;SDS011;36621;60.058;30.346;2023-04-07T21:02:31;20.17;;;5.20;;
50649;SDS011;36621;60.058;30.346;2023-04-07T21:10:07;16.92;;;4.38;;
50649;SDS011;36621;60.058;30.346;2023-04-07T21:17:43;12.82;;;3.17;;
